createdAt,value
2022-09-25T00:00:49.072Z,33.47
2022-09-25T00:03:17.050Z,33.17
2022-09-25T00:05:45.643Z,31.77
2022-09-25T00:08:13.119Z,35.75
2022-09-25T00:10:50.746Z,34.97
2022-09-25T00:13:20.088Z,35.63
2022-09-25T00:15:55.913Z,34.75
2022-09-25T00:18:42.590Z,34.38
2022-09-25T00:21:12.632Z,36.78
2022-09-25T00:23:40.037Z,32.85
2022-09-25T00:26:08.768Z,35.60
2022-09-25T00:28:36.501Z,29.92
2022-09-25T00:31:04.722Z,31.98
2022-09-25T00:33:35.237Z,36.95
2022-09-25T00:36:09.530Z,37.78
2022-09-25T00:38:37.847Z,33.07
2022-09-25T00:41:06.377Z,36.30
2022-09-25T00:43:48.128Z,34.90
2022-09-25T00:46:27.604Z,37.75
2022-09-25T00:49:10.288Z,33.17
2022-09-25T00:51:42.257Z,34.97
2022-09-25T00:54:22.264Z,33.90
2022-09-25T00:56:51.329Z,39.25
2022-09-25T00:59:22.259Z,37.90
2022-09-25T01:01:48.838Z,33.35
2022-09-25T01:04:17.114Z,33.78
2022-09-25T01:06:44.017Z,32.85
2022-09-25T01:09:11.039Z,31.65
2022-09-25T01:11:37.481Z,31.35
2022-09-25T01:14:06.427Z,30.27
2022-09-25T01:17:02.115Z,32.88
2022-09-25T01:19:35.410Z,32.42
2022-09-25T01:22:56.275Z,34.53
2022-09-25T01:25:47.606Z,35.88
2022-09-25T01:28:31.783Z,30.75
2022-09-25T01:31:04.540Z,35.85
2022-09-25T01:33:45.164Z,34.20
2022-09-25T01:36:17.095Z,37.42
2022-09-25T01:38:52.430Z,35.88
2022-09-25T01:41:37.486Z,36.42
2022-09-25T01:44:10.007Z,35.22
2022-09-25T01:46:42.584Z,37.35
2022-09-25T01:49:17.770Z,40.45
2022-09-25T01:54:20.872Z,38.72
2022-09-25T01:56:55.858Z,41.75
2022-09-25T01:59:49.238Z,38.42
2022-09-25T02:02:21.581Z,37.83
2022-09-25T02:05:08.111Z,38.17
2022-09-25T02:07:41.115Z,35.90
2022-09-25T02:10:16.745Z,39.53
2022-09-25T02:12:50.800Z,44.80
2022-09-25T02:15:22.523Z,41.10
2022-09-25T02:18:16.676Z,43.13
2022-09-25T02:20:47.702Z,39.72
2022-09-25T02:23:48.416Z,40.88
2022-09-25T02:26:25.677Z,42.95
2022-09-25T02:28:53.786Z,43.13
2022-09-25T02:31:22.816Z,38.50
2022-09-25T02:33:50.249Z,41.25
2022-09-25T02:36:19.047Z,40.45
2022-09-25T02:38:47.191Z,41.25
2022-09-25T02:41:25.682Z,45.27
2022-09-25T02:44:03.795Z,43.15
2022-09-25T02:46:42.555Z,47.13
2022-09-25T02:49:47.786Z,43.97
2022-09-25T02:52:22.703Z,42.58
2022-09-25T02:55:06.682Z,42.58
2022-09-25T02:57:54.077Z,42.33
2022-09-25T03:00:23.401Z,38.60
2022-09-25T03:02:56.234Z,35.53
2022-09-25T03:05:25.007Z,40.13
2022-09-25T03:08:13.651Z,40.75
2022-09-25T03:10:41.165Z,39.67
2022-09-25T03:13:19.376Z,40.33
2022-09-25T03:15:51.850Z,40.45
2022-09-25T03:18:18.301Z,43.67
2022-09-25T03:20:45.181Z,33.15
2022-09-25T03:23:11.651Z,34.60
2022-09-25T03:25:38.654Z,35.92
2022-09-25T03:28:10.531Z,33.55
2022-09-25T03:30:40.994Z,38.38
2022-09-25T03:33:10.330Z,35.00
2022-09-25T03:35:38.107Z,34.60
2022-09-25T03:38:08.081Z,35.13
2022-09-25T03:40:34.710Z,34.72
2022-09-25T03:45:28.713Z,48.72
2022-09-25T03:47:55.261Z,35.17
2022-09-25T03:50:21.760Z,32.30
2022-09-25T03:52:48.230Z,34.60
2022-09-25T03:55:14.709Z,34.75
2022-09-25T03:57:41.530Z,31.90
2022-09-25T04:00:08.393Z,30.70
2022-09-25T04:02:34.933Z,36.20
2022-09-25T04:05:03.475Z,33.40
2022-09-25T04:07:30.245Z,34.72
2022-09-25T04:09:56.797Z,35.80
2022-09-25T04:12:23.196Z,35.47
2022-09-25T04:14:49.636Z,39.95
2022-09-25T04:17:16.335Z,36.47
2022-09-25T04:19:42.822Z,37.42
2022-09-25T04:22:09.587Z,35.97
2022-09-25T04:24:51.386Z,42.22
2022-09-25T04:27:23.159Z,36.60
2022-09-25T04:29:50.359Z,38.25
2022-09-25T04:32:35.790Z,37.88
2022-09-25T04:35:02.651Z,40.08
2022-09-25T04:37:29.418Z,37.53
2022-09-25T04:39:57.086Z,39.17
2022-09-25T04:42:24.718Z,38.90
2022-09-25T04:44:53.538Z,39.50
2022-09-25T04:47:21.458Z,43.70
2022-09-25T04:49:48.562Z,42.55
2022-09-25T04:52:16.675Z,41.95
2022-09-25T04:54:43.449Z,43.78
2022-09-25T04:57:27.412Z,45.92
2022-09-25T05:00:01.908Z,44.55
2022-09-25T05:02:28.774Z,44.63
2022-09-25T05:04:55.377Z,46.03
2022-09-25T05:07:21.913Z,50.50
2022-09-25T05:09:48.338Z,48.25
2022-09-25T05:12:15.672Z,42.95
2022-09-25T05:14:42.581Z,49.78
2022-09-25T05:17:11.300Z,49.72
2022-09-25T05:19:38.754Z,45.05
2022-09-25T05:22:05.369Z,42.13
2022-09-25T05:24:31.942Z,43.13
2022-09-25T05:26:58.978Z,45.63
2022-09-25T05:29:25.397Z,43.28
2022-09-25T05:31:51.984Z,42.17
2022-09-25T05:34:18.429Z,49.63
2022-09-25T05:36:44.918Z,47.65
2022-09-25T05:39:14.447Z,43.30
2022-09-25T05:41:41.466Z,42.08
2022-09-25T05:44:09.699Z,44.47
2022-09-25T05:46:37.209Z,45.13
2022-09-25T05:49:04.459Z,44.33
2022-09-25T05:51:31.463Z,44.50
2022-09-25T05:53:58.330Z,44.22
2022-09-25T05:56:24.767Z,45.55
2022-09-25T05:58:52.876Z,42.97
2022-09-25T06:01:20.056Z,45.55
2022-09-25T06:03:46.699Z,48.38
2022-09-25T06:06:13.228Z,42.95
2022-09-25T06:08:39.845Z,42.75
2022-09-25T06:11:07.719Z,40.25
2022-09-25T06:13:36.878Z,45.55
2022-09-25T06:16:05.363Z,40.50
2022-09-25T06:18:33.548Z,44.17
2022-09-25T06:21:02.474Z,43.58
2022-09-25T06:23:29.561Z,38.70
2022-09-25T06:26:04.016Z,41.92
2022-09-25T06:28:31.091Z,40.88
2022-09-25T06:31:01.524Z,37.88
2022-09-25T06:33:28.136Z,50.42
2022-09-25T06:35:54.699Z,45.10
2022-09-25T06:38:21.124Z,35.63
2022-09-25T06:40:47.793Z,35.30
2022-09-25T06:43:16.069Z,42.38
2022-09-25T06:45:43.061Z,37.47
2022-09-25T06:48:12.649Z,32.85
2022-09-25T06:50:57.056Z,32.58
2022-09-25T06:53:25.081Z,36.22
2022-09-25T06:55:51.908Z,29.38
2022-09-25T06:58:23.482Z,32.97
2022-09-25T07:00:52.019Z,30.88
2022-09-25T07:03:37.539Z,29.40
2022-09-25T07:06:06.471Z,33.28
2022-09-25T07:08:33.330Z,32.47
2022-09-25T07:11:00.065Z,31.70
2022-09-25T07:13:29.840Z,32.50
2022-09-25T07:15:58.762Z,31.65
2022-09-25T07:18:27.061Z,29.98
2022-09-25T07:20:53.871Z,32.97
2022-09-25T07:23:22.433Z,34.17
2022-09-25T07:25:49.184Z,35.63
2022-09-25T07:28:18.893Z,29.27
2022-09-25T07:30:46.585Z,30.27
2022-09-25T07:33:13.205Z,34.90
2022-09-25T07:35:39.892Z,27.98
2022-09-25T07:38:06.415Z,26.02
2022-09-25T07:40:35.494Z,27.73
2022-09-25T07:43:03.223Z,28.15
2022-09-25T07:45:29.812Z,26.50
2022-09-25T07:48:00.716Z,27.77
2022-09-25T07:50:31.886Z,27.08
2022-09-25T07:52:59.103Z,22.95
2022-09-25T07:55:28.474Z,25.98
2022-09-25T07:57:58.265Z,25.58
2022-09-25T08:00:25.009Z,20.70
2022-09-25T08:02:59.142Z,23.58
2022-09-25T08:05:27.088Z,25.40
2022-09-25T08:07:54.344Z,26.48
2022-09-25T08:10:21.768Z,32.30
2022-09-25T08:12:48.699Z,22.60
2022-09-25T08:15:15.397Z,17.58
2022-09-25T08:17:42.726Z,19.00
2022-09-25T08:20:10.209Z,18.17
2022-09-25T08:22:36.990Z,20.85
2022-09-25T08:25:03.738Z,24.42
2022-09-25T08:27:31.192Z,20.88
2022-09-25T08:29:58.732Z,21.75
2022-09-25T08:32:25.167Z,15.10
2022-09-25T08:34:51.757Z,26.63
2022-09-25T08:37:19.701Z,14.80
2022-09-25T08:39:46.178Z,17.30
2022-09-25T08:42:20.068Z,17.65
2022-09-25T08:45:21.132Z,19.15
2022-09-25T08:48:07.990Z,19.45
2022-09-25T08:50:35.262Z,18.73
2022-09-25T08:53:23.933Z,15.88
2022-09-25T08:56:09.839Z,16.05
2022-09-25T09:01:20.109Z,13.98
2022-09-25T09:04:14.018Z,15.23
2022-09-25T09:06:42.575Z,15.77
2022-09-25T09:09:20.913Z,16.27
2022-09-25T09:11:56.169Z,16.25
2022-09-25T09:17:05.219Z,14.98
2022-09-25T09:19:31.819Z,12.88
2022-09-25T09:22:10.133Z,15.07
2022-09-25T09:24:39.760Z,14.20
2022-09-25T09:27:31.385Z,16.88
2022-09-25T09:30:23.914Z,10.10
2022-09-25T09:33:02.250Z,13.85
2022-09-25T09:35:50.239Z,15.52
2022-09-25T09:38:21.899Z,11.60
2022-09-25T09:41:08.173Z,13.48
2022-09-25T09:44:00.079Z,11.25
2022-09-25T09:46:36.976Z,11.55
2022-09-25T09:49:25.213Z,13.68
2022-09-25T09:52:10.093Z,10.25
2022-09-25T09:55:09.442Z,17.60
2022-09-25T09:57:45.486Z,9.38
2022-09-25T10:00:18.061Z,10.70
2022-09-25T10:03:01.602Z,10.98
2022-09-25T10:05:33.913Z,6.50
2022-09-25T10:08:01.124Z,9.82
2022-09-25T10:10:39.406Z,8.52
2022-09-25T10:13:19.267Z,18.35
2022-09-25T10:16:11.434Z,5.68
2022-09-25T10:18:53.242Z,10.43
2022-09-25T10:21:23.489Z,10.45
2022-09-25T10:23:51.116Z,11.15
2022-09-25T10:26:26.493Z,10.95
2022-09-25T10:28:57.325Z,4.07
2022-09-25T10:31:27.906Z,7.18
2022-09-25T10:34:12.959Z,24.23
2022-09-25T10:36:43.373Z,8.18
2022-09-25T10:39:44.766Z,12.82
2022-09-25T10:42:33.497Z,5.75
2022-09-25T10:45:19.997Z,7.07
2022-09-25T10:48:15.909Z,8.93
2022-09-25T10:53:32.312Z,8.98
2022-09-25T10:56:08.482Z,8.70
2022-09-25T10:58:41.115Z,8.98
2022-09-25T11:01:13.108Z,17.02
2022-09-25T11:03:57.031Z,6.13
2022-09-25T11:06:30.370Z,5.72
2022-09-25T11:09:29.378Z,6.30
2022-09-25T11:12:13.399Z,6.78
2022-09-25T11:14:46.230Z,6.90
2022-09-25T11:17:42.073Z,7.45
2022-09-25T11:20:43.709Z,8.55
2022-09-25T11:23:23.780Z,7.65
2022-09-25T11:26:14.035Z,12.18
2022-09-25T11:28:55.485Z,12.60
2022-09-25T11:31:46.449Z,8.77
2022-09-25T11:34:39.075Z,10.25
2022-09-25T11:37:25.296Z,11.95
2022-09-25T11:40:28.682Z,8.02
2022-09-25T11:43:11.080Z,10.52
2022-09-25T11:45:44.176Z,5.75
2022-09-25T11:48:23.217Z,14.05
2022-09-25T11:50:57.464Z,18.00
2022-09-25T11:53:33.400Z,19.38
2022-09-25T11:56:12.792Z,11.32
2022-09-25T11:58:39.233Z,11.57
2022-09-25T12:01:14.945Z,8.23
2022-09-25T12:04:12.686Z,6.03
2022-09-25T12:06:53.252Z,5.57
2022-09-25T12:09:51.937Z,4.78
2022-09-25T12:12:51.447Z,7.43
2022-09-25T12:15:31.538Z,5.82
2022-09-25T12:18:13.146Z,6.40
2022-09-25T12:21:01.699Z,5.07
2022-09-25T12:23:34.241Z,6.00
2022-09-25T12:26:16.399Z,9.30
2022-09-25T12:28:42.944Z,6.63
2022-09-25T12:31:39.503Z,7.97
2022-09-25T12:34:27.356Z,10.32
2022-09-25T12:37:09.143Z,5.28
2022-09-25T12:39:41.192Z,7.80
2022-09-25T12:42:17.761Z,7.38
2022-09-25T12:44:53.070Z,8.30
2022-09-25T12:50:03.781Z,4.57
2022-09-25T12:52:37.975Z,2.65
2022-09-25T12:55:32.187Z,5.93
2022-09-25T12:58:23.062Z,5.50
2022-09-25T13:00:55.174Z,5.57
2022-09-25T13:03:40.000Z,1.83
2022-09-25T13:06:27.071Z,5.45
2022-09-25T13:09:07.966Z,3.22
2022-09-25T13:11:51.734Z,5.95
2022-09-25T13:14:34.507Z,2.70
2022-09-25T13:17:01.772Z,4.38
2022-09-25T13:19:30.675Z,5.57
2022-09-25T13:22:25.040Z,6.47
2022-09-25T13:25:03.087Z,5.03
2022-09-25T13:27:40.351Z,4.25
2022-09-25T13:30:07.563Z,3.80
2022-09-25T13:32:38.206Z,3.58
2022-09-25T13:35:19.392Z,3.20
2022-09-25T13:37:48.184Z,5.20
2022-09-25T13:40:45.967Z,5.82
2022-09-25T13:43:21.139Z,4.38
2022-09-25T13:45:49.199Z,8.10
2022-09-25T13:48:34.152Z,4.32
2022-09-25T13:51:36.484Z,5.90
2022-09-25T13:54:08.965Z,3.10
2022-09-25T13:56:41.325Z,3.45
2022-09-25T13:59:13.676Z,2.88
2022-09-25T14:01:51.555Z,3.05
2022-09-25T14:04:29.301Z,4.10
2022-09-25T14:07:12.958Z,3.10
2022-09-25T14:09:44.768Z,4.63
2022-09-25T14:12:23.368Z,2.55
2022-09-25T14:15:06.049Z,13.45
2022-09-25T14:17:35.884Z,2.47
2022-09-25T14:20:07.209Z,2.42
2022-09-25T14:22:44.121Z,2.75
2022-09-25T14:25:46.676Z,4.07
2022-09-25T14:28:25.504Z,4.38
2022-09-25T14:30:57.380Z,3.97
2022-09-25T14:33:37.231Z,3.83
2022-09-25T14:36:22.309Z,3.78
2022-09-25T14:39:20.043Z,1.58
2022-09-25T14:41:54.397Z,3.38
2022-09-25T14:44:59.894Z,4.03
2022-09-25T14:47:33.705Z,8.90
2022-09-25T14:50:00.700Z,4.55
2022-09-25T14:52:32.901Z,4.22
2022-09-25T14:55:00.549Z,4.47
2022-09-25T14:57:30.974Z,2.05
2022-09-25T15:00:02.200Z,6.72
2022-09-25T15:02:34.133Z,2.90
2022-09-25T15:05:17.457Z,6.93
2022-09-25T15:07:46.292Z,4.35
2022-09-25T15:10:32.581Z,2.55
2022-09-25T15:13:19.044Z,4.70
2022-09-25T15:16:15.062Z,6.28
2022-09-25T15:18:51.189Z,2.78
2022-09-25T15:21:25.119Z,3.85
2022-09-25T15:23:54.460Z,3.33
2022-09-25T15:26:21.487Z,3.55
2022-09-25T15:28:48.754Z,2.95
2022-09-25T15:31:15.419Z,3.10
2022-09-25T15:33:42.153Z,2.45
2022-09-25T15:36:16.763Z,2.03
2022-09-25T15:38:44.449Z,5.35
2022-09-25T15:41:17.208Z,1.38
2022-09-25T15:43:44.777Z,4.85
2022-09-25T15:46:11.234Z,3.20
2022-09-25T15:48:50.361Z,3.20
2022-09-25T15:51:22.256Z,2.78
2022-09-25T15:53:57.127Z,3.15
2022-09-25T15:56:49.033Z,3.53
2022-09-25T15:59:23.984Z,3.33
2022-09-25T16:02:09.407Z,2.80
2022-09-25T16:07:23.295Z,3.67
2022-09-25T16:09:52.427Z,4.80
2022-09-25T16:12:50.565Z,3.40
2022-09-25T16:15:26.192Z,3.05
2022-09-25T16:18:02.892Z,4.18
2022-09-25T16:20:35.984Z,3.20
2022-09-25T16:23:16.615Z,5.78
2022-09-25T16:25:44.570Z,3.80
2022-09-25T16:28:24.274Z,5.25
2022-09-25T16:31:10.466Z,3.60
2022-09-25T16:33:41.193Z,2.83
2022-09-25T16:36:17.487Z,3.20
2022-09-25T16:39:03.842Z,1.52
2022-09-25T16:44:17.656Z,3.55
2022-09-25T16:46:56.548Z,4.97
2022-09-25T16:49:23.844Z,5.03
2022-09-25T16:51:53.961Z,4.03
2022-09-25T16:54:22.517Z,2.65
2022-09-25T16:56:49.269Z,3.30
2022-09-25T16:59:25.998Z,3.45
2022-09-25T17:01:55.891Z,3.72
2022-09-25T17:04:27.076Z,2.72
2022-09-25T17:06:57.883Z,1.85
2022-09-25T17:09:29.380Z,2.05
2022-09-25T17:12:05.084Z,8.73
2022-09-25T17:14:32.119Z,5.78
2022-09-25T17:16:58.982Z,2.78
2022-09-25T17:19:25.616Z,3.28
2022-09-25T17:21:53.446Z,4.53
2022-09-25T17:24:25.408Z,5.00
2022-09-25T17:26:52.627Z,4.00
2022-09-25T17:29:20.367Z,5.80
2022-09-25T17:31:46.857Z,2.97
2022-09-25T17:34:19.549Z,3.60
2022-09-25T17:36:46.087Z,3.22
2022-09-25T17:39:12.998Z,3.08
2022-09-25T17:41:40.344Z,4.15
2022-09-25T17:44:08.854Z,2.35
2022-09-25T17:46:36.160Z,2.42
2022-09-25T17:49:03.794Z,3.15
2022-09-25T17:51:30.635Z,4.85
2022-09-25T17:53:59.122Z,2.00
2022-09-25T17:56:29.600Z,5.28
2022-09-25T17:58:57.336Z,3.30
2022-09-25T18:01:27.291Z,2.85
2022-09-25T18:03:59.578Z,2.08
2022-09-25T18:06:28.286Z,2.20
2022-09-25T18:08:55.995Z,4.20
2022-09-25T18:11:24.441Z,4.57
2022-09-25T18:13:56.879Z,3.03
2022-09-25T18:16:29.870Z,4.72
2022-09-25T18:19:15.247Z,2.72
2022-09-25T18:22:00.209Z,2.83
2022-09-25T18:24:26.870Z,4.53
2022-09-25T18:26:55.031Z,2.97
2022-09-25T18:29:21.780Z,3.53
2022-09-25T18:31:48.805Z,3.40
2022-09-25T18:34:18.281Z,3.38
2022-09-25T18:36:45.312Z,4.65
2022-09-25T18:39:14.945Z,8.32
2022-09-25T18:41:45.587Z,3.42
2022-09-25T18:44:13.071Z,4.10
2022-09-25T18:46:39.712Z,7.47
2022-09-25T18:49:06.747Z,4.57
2022-09-25T18:51:34.065Z,2.65
2022-09-25T18:54:01.652Z,3.03
2022-09-25T18:56:28.257Z,6.10
2022-09-25T18:58:54.768Z,2.92
2022-09-25T19:01:21.303Z,5.43
2022-09-25T19:03:51.969Z,5.28
2022-09-25T19:06:18.909Z,5.35
2022-09-25T19:08:51.787Z,8.48
2022-09-25T19:11:18.702Z,5.35
2022-09-25T19:13:45.882Z,6.88
2022-09-25T19:16:12.346Z,7.32
2022-09-25T19:18:38.960Z,5.20
2022-09-25T19:21:05.467Z,3.72
2022-09-25T19:23:35.451Z,6.68
2022-09-25T19:26:04.956Z,6.35
2022-09-25T19:28:34.017Z,5.50
2022-09-25T19:31:13.671Z,6.65
2022-09-25T19:33:40.173Z,5.35
2022-09-25T19:36:10.185Z,6.22
2022-09-25T19:38:38.555Z,6.25
2022-09-25T19:41:18.099Z,6.82
2022-09-25T19:43:45.659Z,5.35
2022-09-25T19:46:14.860Z,14.07
2022-09-25T19:48:41.497Z,4.43
2022-09-25T19:51:09.438Z,7.63
2022-09-25T19:53:36.509Z,4.97
2022-09-25T19:56:03.549Z,3.70
2022-09-25T19:58:31.703Z,7.40
2022-09-25T20:00:58.310Z,11.35
2022-09-25T20:03:24.720Z,8.82
2022-09-25T20:05:51.409Z,6.78
2022-09-25T20:08:18.079Z,7.30
2022-09-25T20:10:44.713Z,7.45
2022-09-25T20:13:13.394Z,9.82
2022-09-25T20:15:41.357Z,10.00
2022-09-25T20:18:07.835Z,36.72
2022-09-25T20:20:34.276Z,20.98
2022-09-25T20:23:00.819Z,12.65
2022-09-25T20:25:28.015Z,7.78
2022-09-25T20:27:54.838Z,11.75
2022-09-25T20:30:24.701Z,5.20
2022-09-25T20:32:51.895Z,14.30
2022-09-25T20:35:19.726Z,12.57
2022-09-25T20:37:46.608Z,13.18
2022-09-25T20:40:14.868Z,14.48
2022-09-25T20:42:41.818Z,6.15
2022-09-25T20:45:10.027Z,5.38
2022-09-25T20:47:36.576Z,8.90
2022-09-25T20:50:04.792Z,7.05
2022-09-25T20:52:32.876Z,10.88
2022-09-25T20:54:59.766Z,6.10
2022-09-25T20:57:26.206Z,7.60
2022-09-25T20:59:52.628Z,5.45
2022-09-25T21:02:19.303Z,5.57
2022-09-25T21:04:45.741Z,7.50
2022-09-25T21:07:16.723Z,6.93
2022-09-25T21:09:43.641Z,9.02
2022-09-25T21:12:10.096Z,7.47
2022-09-25T21:14:37.010Z,7.00
2022-09-25T21:17:03.861Z,7.80
2022-09-25T21:19:31.690Z,5.50
2022-09-25T21:21:58.063Z,10.50
2022-09-25T21:24:24.500Z,11.23
2022-09-25T21:26:51.251Z,8.45
2022-09-25T21:29:18.187Z,8.02
2022-09-25T21:31:49.737Z,7.72
2022-09-25T21:34:19.739Z,8.05
2022-09-25T21:36:46.333Z,7.40
2022-09-25T21:39:13.387Z,7.28
2022-09-25T21:41:40.395Z,9.18
2022-09-25T21:44:13.528Z,6.25
2022-09-25T21:46:40.698Z,5.88
2022-09-25T21:49:08.364Z,5.22
2022-09-25T21:51:42.543Z,6.47
2022-09-25T21:54:10.344Z,7.80
2022-09-25T21:56:36.852Z,5.28
2022-09-25T21:59:08.862Z,7.05
2022-09-25T22:01:38.255Z,4.10
2022-09-25T22:04:05.590Z,8.98
2022-09-25T22:06:37.773Z,6.82
2022-09-25T22:09:10.948Z,9.38
2022-09-25T22:11:38.449Z,7.60
2022-09-25T22:14:05.747Z,5.20
2022-09-25T22:16:35.403Z,6.55
2022-09-25T22:19:08.127Z,8.30
2022-09-25T22:21:35.727Z,8.75
2022-09-25T22:24:02.857Z,4.63
2022-09-25T22:26:30.975Z,5.68
2022-09-25T22:28:57.511Z,6.55
2022-09-25T22:31:26.867Z,10.95
2022-09-25T22:33:56.261Z,4.95
2022-09-25T22:36:23.013Z,5.60
2022-09-25T22:38:49.506Z,5.43
2022-09-25T22:41:16.025Z,7.95
2022-09-25T22:43:42.762Z,7.13
2022-09-25T22:46:11.322Z,7.68
2022-09-25T22:48:38.578Z,9.50
2022-09-25T22:51:07.522Z,9.68
2022-09-25T22:53:35.248Z,6.03
2022-09-25T22:56:29.052Z,6.63
2022-09-25T22:59:01.269Z,8.00
2022-09-25T23:02:01.429Z,4.85
2022-09-25T23:04:27.932Z,6.60
2022-09-25T23:06:54.523Z,5.10
2022-09-25T23:09:24.850Z,6.30
2022-09-25T23:11:52.913Z,4.75
2022-09-25T23:14:22.525Z,5.90
2022-09-25T23:16:51.097Z,6.75
2022-09-25T23:19:18.432Z,6.80
2022-09-25T23:21:48.172Z,5.60
2022-09-25T23:24:17.761Z,5.20
2022-09-25T23:26:45.445Z,8.48
2022-09-25T23:29:14.548Z,7.97
2022-09-25T23:31:42.217Z,5.75
2022-09-25T23:34:09.395Z,6.47
2022-09-25T23:36:36.585Z,5.72
2022-09-25T23:39:04.287Z,5.82
2022-09-25T23:41:34.206Z,5.88
2022-09-25T23:44:02.610Z,7.45
2022-09-25T23:46:31.974Z,9.23
2022-09-25T23:48:59.518Z,9.70
2022-09-25T23:51:27.171Z,7.28
2022-09-25T23:53:55.618Z,6.28
2022-09-25T23:56:25.006Z,12.02
2022-09-25T23:58:52.390Z,5.45
